Avery, Idaho
Current Conditions -  °F | °C
As of 8:53 PM on Wednesday 22 Oct 2014 (Local Time) from KMLP Reporting Station
Scattered Clouds Scattered Clouds  
Wind Chill: 35°   Ceiling: Unl
Heat Index: 42°   Visibility: 10mi
Dew Point: 32°   Wind: 13mph
Humidity: 67%   Direction: 160°SSE
Pressure: 29.88"   Gusts: 25mph
Location:  47.25°N, 115.81°W
Report Text: KMLP 230353Z AUTO 16011G22KT 100V200 10SM SCT044 06/00 A2988 RMK AO2 SLP072 T00560000
Loading
Personal Weather Stations






























Interactive Weather Map New forecast layout! Learn more

10-Day Weather Forecast

Advertisements
Track Severe Weather on mobile